Time;durP1;ratioP1;P1;durP2;ratioP2;P2;SDS_P1;SDS_P2;PMS_P1;PMS_P2;Temp;Humidity;BMP_temperature;BMP_pressure;BME280_temperature;BME280_humidity;BME280_pressure;Samples;Min_cycle;Max_cycle;Signal;HPM_P1;HPM_P2
2022/05/09 00:01:13;;;;;;;45.20;19.07;;;13.50;38.70;;;;;;5040316;28;20594;-57
2022/05/09 00:03:42;;;;;;;43.97;19.63;;;13.50;38.50;;;;;;5037304;28;20471;-58
2022/05/09 00:06:10;;;;;;;42.53;18.50;;;13.50;38.70;;;;;;5033716;28;20929;-59
2022/05/09 00:08:37;;;;;;;42.40;18.40;;;13.50;38.80;;;;;;5040394;28;20843;-58
2022/05/09 00:11:04;;;;;;;43.17;18.50;;;13.40;38.60;;;;;;5047815;28;20545;-60
2022/05/09 00:13:31;;;;;;;40.57;17.80;;;13.40;38.60;;;;;;5038731;28;20462;-57
2022/05/09 00:15:58;;;;;;;43.43;18.37;;;13.40;38.80;;;;;;5033435;28;20475;-58
2022/05/09 00:18:24;;;;;;;41.97;17.67;;;13.40;38.60;;;;;;5045418;28;20458;-57
2022/05/09 00:20:51;;;;;;;41.80;18.90;;;13.40;38.90;;;;;;5033227;28;20566;-58
2022/05/09 00:23:19;;;;;;;41.93;18.27;;;13.30;38.90;;;;;;5043408;28;20465;-59
2022/05/09 00:25:46;;;;;;;41.33;19.17;;;13.40;39.20;;;;;;5034574;28;21331;-56
2022/05/09 00:28:13;;;;;;;46.20;18.07;;;13.40;39.00;;;;;;5038375;28;20466;-58
2022/05/09 00:30:40;;;;;;;41.80;18.00;;;13.40;39.00;;;;;;5044224;28;20459;-57
2022/05/09 00:33:06;;;;;;;39.90;16.20;;;13.40;38.90;;;;;;5036250;28;20957;-58
2022/05/09 00:35:34;;;;;;;41.27;17.90;;;13.30;39.00;;;;;;5034298;28;20900;-58
2022/05/09 00:38:01;;;;;;;43.57;17.57;;;13.30;39.10;;;;;;5047423;28;20462;-57
2022/05/09 00:40:29;;;;;;;40.83;16.90;;;13.30;39.30;;;;;;5045102;28;20474;-57
2022/05/09 00:42:56;;;;;;;39.70;16.60;;;13.30;39.80;;;;;;5041741;28;21201;-57
2022/05/09 00:45:25;;;;;;;44.77;18.90;;;13.20;39.00;;;;;;5033603;28;20489;-57
2022/05/09 00:47:52;;;;;;;45.20;19.70;;;13.20;39.10;;;;;;5038194;28;20463;-58
2022/05/09 00:50:24;;;;;;;44.03;17.20;;;13.20;39.20;;;;;;5036940;28;20455;-58
2022/05/09 00:52:56;;;;;;;42.87;18.57;;;13.10;39.40;;;;;;5045817;28;20976;-57
2022/05/09 00:55:28;;;;;;;42.80;18.30;;;13.10;39.60;;;;;;5033772;28;20555;-56
2022/05/09 00:58:03;;;;;;;44.07;19.30;;;13.10;39.50;;;;;;5035701;28;20542;-60
2022/05/09 01:00:30;;;;;;;41.37;17.90;;;13.00;39.70;;;;;;5037276;28;20475;-60
2022/05/09 01:03:01;;;;;;;41.47;18.43;;;13.00;39.60;;;;;;5030450;28;20455;-58
2022/05/09 01:05:29;;;;;;;42.07;17.70;;;13.00;39.60;;;;;;5036124;28;20505;-59
2022/05/09 01:07:59;;;;;;;41.83;17.20;;;13.00;39.60;;;;;;5039604;28;20816;-58
2022/05/09 01:10:31;;;;;;;40.80;16.60;;;13.00;39.70;;;;;;5041716;28;20476;-58
2022/05/09 01:13:01;;;;;;;43.03;18.23;;;12.90;39.80;;;;;;5040762;28;20462;-57
2022/05/09 01:15:28;;;;;;;42.20;17.20;;;12.90;39.70;;;;;;5034105;28;20983;-60
2022/05/09 01:17:56;;;;;;;41.30;17.13;;;12.90;39.90;;;;;;5033526;28;20502;-57
2022/05/09 01:20:23;;;;;;;40.30;16.40;;;12.90;40.10;;;;;;5035864;28;20488;-58
2022/05/09 01:22:51;;;;;;;41.17;17.50;;;12.90;40.30;;;;;;5040721;28;20469;-60
2022/05/09 01:25:18;;;;;;;39.57;15.10;;;12.80;40.00;;;;;;5042904;28;20478;-57
2022/05/09 01:27:47;;;;;;;42.43;18.20;;;12.80;40.20;;;;;;5040813;28;20465;-57
2022/05/09 01:30:18;;;;;;;41.13;16.80;;;12.80;40.20;;;;;;5032054;28;20471;-58
2022/05/09 01:32:50;;;;;;;40.30;16.40;;;12.80;40.10;;;;;;5037660;28;20472;-57
2022/05/09 01:35:21;;;;;;;41.50;16.20;;;12.80;40.00;;;;;;5039030;28;20493;-58
2022/05/09 01:37:53;;;;;;;46.27;16.43;;;12.80;39.80;;;;;;5045819;28;20982;-59
2022/05/09 01:40:20;;;;;;;39.60;15.73;;;12.70;40.00;;;;;;5044356;28;20466;-58
2022/05/09 01:42:47;;;;;;;42.77;16.30;;;12.70;39.80;;;;;;5038496;28;20662;-58
2022/05/09 01:45:14;;;;;;;41.67;16.57;;;12.70;39.80;;;;;;5040010;28;20478;-57
2022/05/09 01:50:25;;;;;;;39.83;16.77;;;12.60;39.90;;;;;;5039064;28;20533;-57
2022/05/09 01:52:54;;;;;;;42.80;16.70;;;12.60;40.00;;;;;;5033923;28;20455;-58
2022/05/09 01:55:21;;;;;;;42.07;17.10;;;12.50;40.30;;;;;;5045948;28;20478;-57
2022/05/09 01:57:49;;;;;;;43.10;18.30;;;12.50;40.20;;;;;;5040004;28;20462;-57
2022/05/09 02:00:17;;;;;;;40.33;16.77;;;12.50;40.20;;;;;;5033210;28;20471;-57
2022/05/09 02:02:44;;;;;;;39.50;16.20;;;12.50;40.50;;;;;;5040000;28;20485;-58
2022/05/09 02:05:12;;;;;;;41.67;17.00;;;12.50;40.60;;;;;;5036666;28;20481;-59
2022/05/09 02:07:39;;;;;;;40.57;16.97;;;12.40;40.30;;;;;;5038430;28;20592;-57
2022/05/09 02:10:08;;;;;;;39.93;15.90;;;12.40;40.40;;;;;;5039339;28;20462;-58
2022/05/09 02:12:35;;;;;;;41.53;17.03;;;12.40;40.30;;;;;;5038691;28;20465;-57
2022/05/09 02:15:02;;;;;;;41.10;15.80;;;12.40;40.30;;;;;;5033284;28;20493;-56
2022/05/09 02:17:30;;;;;;;43.27;16.80;;;12.40;40.40;;;;;;5038957;28;20553;-58
2022/05/09 02:19:58;;;;;;;41.93;16.90;;;12.40;40.20;;;;;;5032373;28;20555;-58
2022/05/09 02:22:25;;;;;;;41.50;17.17;;;12.30;40.30;;;;;;5043336;28;20488;-58
2022/05/09 02:24:52;;;;;;;42.33;16.47;;;12.30;40.40;;;;;;5044165;28;20478;-57
2022/05/09 02:27:20;;;;;;;40.67;16.67;;;12.30;40.50;;;;;;5038505;28;20520;-59
2022/05/09 02:29:47;;;;;;;42.30;16.40;;;12.30;40.40;;;;;;5040393;28;20451;-58
2022/05/09 02:32:15;;;;;;;41.10;17.60;;;12.20;40.40;;;;;;5044349;28;21157;-57
2022/05/09 02:34:41;;;;;;;41.60;16.83;;;12.20;40.60;;;;;;5045737;28;20478;-59
2022/05/09 02:37:08;;;;;;;42.30;16.27;;;12.20;40.70;;;;;;5040589;28;20461;-57
2022/05/09 02:39:35;;;;;;;42.53;17.60;;;12.20;40.60;;;;;;5044673;28;20492;-57
2022/05/09 02:42:02;;;;;;;43.37;17.17;;;12.20;40.80;;;;;;5045006;28;20478;-57
2022/05/09 02:44:30;;;;;;;42.90;17.10;;;12.10;40.70;;;;;;5038569;28;20485;-57
2022/05/09 02:46:57;;;;;;;41.03;16.60;;;12.10;40.90;;;;;;5047104;28;20680;-58
2022/05/09 02:49:24;;;;;;;42.43;17.17;;;12.10;41.00;;;;;;5039922;28;20465;-57
2022/05/09 02:51:52;;;;;;;43.63;17.90;;;12.10;40.90;;;;;;5041707;28;20548;-57
2022/05/09 02:54:19;;;;;;;44.20;17.67;;;12.00;40.90;;;;;;5043170;28;20523;-58
2022/05/09 02:56:46;;;;;;;41.57;17.10;;;12.00;41.10;;;;;;5047300;28;20461;-58
2022/05/09 02:59:12;;;;;;;41.63;17.20;;;12.00;41.00;;;;;;5042205;28;20825;-57
2022/05/09 03:01:40;;;;;;;42.40;16.97;;;11.90;41.10;;;;;;5036838;28;20938;-57
2022/05/09 03:06:51;;;;;;;42.50;18.30;;;11.90;41.20;;;;;;5037872;28;20441;-57
2022/05/09 03:09:18;;;;;;;42.70;17.73;;;11.90;41.10;;;;;;5049427;28;20971;-57
2022/05/09 03:11:45;;;;;;;42.30;18.17;;;11.80;40.80;;;;;;5038160;28;20577;-57
2022/05/09 03:14:12;;;;;;;42.50;18.20;;;11.80;41.00;;;;;;5038533;28;21039;-59
2022/05/09 03:16:40;;;;;;;41.63;16.90;;;11.80;41.00;;;;;;5036738;28;20462;-60
2022/05/09 03:19:07;;;;;;;41.97;16.83;;;11.80;41.20;;;;;;5045969;28;20461;-59
2022/05/09 03:21:33;;;;;;;42.83;17.70;;;11.70;41.10;;;;;;5041821;28;20474;-60
2022/05/09 03:24:00;;;;;;;42.50;16.77;;;11.70;41.10;;;;;;5038839;28;20484;-61
2022/05/09 03:26:28;;;;;;;42.23;16.93;;;11.70;41.10;;;;;;5047011;28;20458;-58
2022/05/09 03:28:54;;;;;;;41.07;16.53;;;11.70;41.10;;;;;;5043094;28;20466;-59
2022/05/09 03:31:21;;;;;;;41.57;16.97;;;11.70;41.10;;;;;;5037957;28;20466;-59
2022/05/09 03:33:50;;;;;;;44.93;19.00;;;11.70;41.30;;;;;;5039570;28;20470;-58
2022/05/09 03:36:16;;;;;;;43.77;18.23;;;11.70;41.50;;;;;;5040835;28;21116;-59
2022/05/09 03:38:43;;;;;;;40.97;17.03;;;11.60;41.60;;;;;;5041529;28;20462;-55
2022/05/09 03:41:10;;;;;;;42.70;18.17;;;11.70;41.70;;;;;;5038184;28;20483;-55
2022/05/09 03:43:36;;;;;;;44.10;17.93;;;11.60;41.90;;;;;;5034219;28;20469;-56
2022/05/09 03:46:04;;;;;;;43.03;17.87;;;11.60;42.10;;;;;;5040494;28;20833;-56
2022/05/09 03:48:31;;;;;;;43.43;17.03;;;11.60;42.10;;;;;;5044406;28;20462;-56
2022/05/09 03:51:01;;;;;;;41.13;16.40;;;11.60;42.20;;;;;;5039269;28;20469;-56
2022/05/09 03:53:28;;;;;;;42.17;18.33;;;11.60;42.10;;;;;;5036635;28;20468;-56
2022/05/09 03:55:55;;;;;;;43.97;18.70;;;11.60;42.10;;;;;;5039445;28;20487;-55
2022/05/09 03:58:22;;;;;;;41.90;17.30;;;11.60;42.00;;;;;;5039721;28;20481;-56
2022/05/09 04:00:49;;;;;;;44.07;19.37;;;11.60;41.90;;;;;;5035759;28;20508;-56
2022/05/09 04:03:16;;;;;;;45.00;18.30;;;11.60;42.10;;;;;;5048869;28;20599;-56
2022/05/09 04:05:43;;;;;;;44.37;19.00;;;11.60;42.10;;;;;;5038393;28;20494;-56
2022/05/09 04:08:16;;;;;;;46.37;18.50;;;11.60;42.10;;;;;;5037020;28;20537;-55
2022/05/09 04:10:44;;;;;;;44.20;18.17;;;11.60;42.10;;;;;;5037289;28;20533;-56
2022/05/09 04:13:11;;;;;;;43.10;18.13;;;11.60;42.10;;;;;;5041756;28;20467;-58
2022/05/09 04:18:25;;;;;;;41.70;17.73;;;11.70;42.00;;;;;;5038481;28;20457;-57
2022/05/09 04:20:52;;;;;;;42.10;16.87;;;11.70;42.20;;;;;;5051131;28;20458;-56
2022/05/09 04:23:21;;;;;;;44.03;16.50;;;11.70;42.30;;;;;;5043387;28;20458;-56
2022/05/09 04:25:48;;;;;;;42.30;17.50;;;11.80;42.20;;;;;;5035033;28;20483;-57
2022/05/09 04:28:18;;;;;;;41.63;16.03;;;11.80;42.30;;;;;;5042360;28;20920;-56
2022/05/09 04:30:45;;;;;;;40.50;15.73;;;11.80;42.30;;;;;;5035399;28;20450;-57
2022/05/09 04:33:13;;;;;;;39.77;15.97;;;11.80;42.20;;;;;;5035970;28;20455;-57
2022/05/09 04:35:42;;;;;;;42.30;17.73;;;11.90;42.50;;;;;;5035822;28;20520;-57
2022/05/09 04:38:14;;;;;;;40.13;16.77;;;11.90;42.50;;;;;;5039596;28;20489;-56
2022/05/09 04:40:42;;;;;;;41.47;16.60;;;12.00;42.50;;;;;;5037418;28;20466;-57
2022/05/09 04:43:09;;;;;;;40.53;17.37;;;12.00;42.30;;;;;;5042064;28;20987;-56
2022/05/09 04:45:35;;;;;;;39.07;15.10;;;12.10;42.40;;;;;;5039232;28;20485;-56
2022/05/09 04:48:03;;;;;;;38.87;14.83;;;12.10;42.10;;;;;;5033272;28;20458;-58
2022/05/09 04:50:32;;;;;;;40.17;15.70;;;12.20;42.40;;;;;;5042286;28;20481;-58
2022/05/09 04:52:59;;;;;;;40.03;14.97;;;12.30;42.10;;;;;;5045747;28;20482;-57
2022/05/09 04:55:26;;;;;;;40.27;15.30;;;12.40;42.00;;;;;;5040370;28;20474;-57
2022/05/09 04:57:54;;;;;;;38.97;14.80;;;12.50;42.50;;;;;;5037478;28;21015;-57
2022/05/09 05:00:24;;;;;;;40.40;15.33;;;12.80;41.40;;;;;;5042541;28;20551;-59
2022/05/09 05:02:52;;;;;;;40.87;14.23;;;13.20;40.80;;;;;;5042157;28;20470;-56
2022/05/09 05:05:18;;;;;;;38.60;13.63;;;13.70;39.70;;;;;;5041777;28;20498;-56
2022/05/09 05:07:45;;;;;;;38.10;13.53;;;14.20;38.80;;;;;;5034132;28;20472;-56
2022/05/09 05:10:13;;;;;;;36.70;12.17;;;14.60;37.50;;;;;;5039054;28;20458;-57
2022/05/09 05:12:41;;;;;;;37.73;12.80;;;15.20;36.10;;;;;;5037319;28;20454;-56
2022/05/09 05:15:10;;;;;;;38.43;12.20;;;15.70;34.20;;;;;;5034808;28;20486;-57
2022/05/09 05:17:38;;;;;;;38.50;11.67;;;16.20;32.40;;;;;;5037484;28;20469;-59
2022/05/09 05:20:09;;;;;;;35.00;11.27;;;16.70;31.20;;;;;;5035021;28;20463;-57
2022/05/09 05:22:37;;;;;;;35.53;11.20;;;17.30;30.30;;;;;;5036461;28;20482;-56
2022/05/09 05:25:04;;;;;;;36.83;11.50;;;17.90;29.00;;;;;;5038766;28;20514;-56
2022/05/09 05:27:31;;;;;;;36.70;10.70;;;18.40;27.10;;;;;;5034584;28;20461;-56
2022/05/09 05:29:59;;;;;;;37.73;11.07;;;19.00;26.20;;;;;;5033600;28;20473;-57
2022/05/09 05:32:31;;;;;;;36.00;11.50;;;19.50;24.30;;;;;;5033455;28;20468;-56
2022/05/09 05:34:57;;;;;;;37.53;9.50;;;20.10;23.10;;;;;;5031441;28;20537;-58
2022/05/09 05:37:24;;;;;;;33.70;9.77;;;20.60;21.00;;;;;;5037727;28;20457;-59
2022/05/09 05:39:51;;;;;;;33.67;9.60;;;21.20;20.00;;;;;;5039306;28;20462;-57
2022/05/09 05:42:19;;;;;;;33.40;8.93;;;21.70;19.00;;;;;;5046039;28;22222;-58
2022/05/09 05:44:47;;;;;;;32.50;9.83;;;22.20;18.00;;;;;;5039590;28;20479;-57
2022/05/09 05:47:16;;;;;;;33.80;8.90;;;22.70;16.10;;;;;;5034786;28;20466;-60
2022/05/09 05:49:44;;;;;;;32.07;9.77;;;23.10;15.70;;;;;;5029321;28;20466;-58
2022/05/09 05:52:12;;;;;;;33.47;9.27;;;23.60;15.40;;;;;;5039100;28;20442;-59
2022/05/09 05:54:41;;;;;;;31.73;9.27;;;24.00;14.10;;;;;;5045421;28;20498;-57
2022/05/09 05:57:18;;;;;;;32.47;9.40;;;24.50;13.70;;;;;;5042481;28;20463;-57
2022/05/09 05:59:48;;;;;;;33.53;10.03;;;24.90;12.50;;;;;;5031176;28;20469;-57
2022/05/09 06:02:15;;;;;;;32.20;9.00;;;25.30;10.90;;;;;;5037226;28;20478;-59
2022/05/09 06:04:41;;;;;;;32.43;9.10;;;25.70;10.60;;;;;;5042040;28;20489;-57
2022/05/09 06:07:10;;;;;;;31.07;9.20;;;26.00;10.30;;;;;;5046141;28;20466;-58
2022/05/09 06:09:37;;;;;;;30.70;8.50;;;26.40;9.20;;;;;;5055895;28;20466;-57
2022/05/09 06:12:05;;;;;;;29.80;8.60;;;26.90;8.60;;;;;;5034825;28;20480;-58
2022/05/09 06:14:31;;;;;;;30.57;8.13;;;27.40;8.60;;;;;;5036973;28;20490;-56
2022/05/09 06:16:58;;;;;;;31.40;8.80;;;27.80;7.50;;;;;;5041634;28;20477;-57
2022/05/09 06:19:25;;;;;;;32.23;9.07;;;28.30;6.80;;;;;;5033781;28;20461;-58
2022/05/09 06:21:52;;;;;;;33.07;9.30;;;28.70;5.70;;;;;;5040370;28;20551;-60
2022/05/09 06:24:20;;;;;;;31.73;9.20;;;29.00;5.60;;;;;;5042939;28;20484;-57
2022/05/09 06:26:48;;;;;;;30.27;8.93;;;29.40;4.30;;;;;;5042355;28;20453;-60
2022/05/09 06:29:15;;;;;;;31.77;9.53;;;29.70;4.20;;;;;;5041994;28;20477;-60
2022/05/09 06:31:41;;;;;;;28.97;8.60;;;30.10;4.20;;;;;;5040622;28;21098;-57
2022/05/09 06:34:11;;;;;;;30.10;8.80;;;30.50;3.60;;;;;;5043587;28;20465;-58
2022/05/09 06:36:38;;;;;;;32.17;8.43;;;31.00;3.40;;;;;;5038912;28;20828;-59
2022/05/09 06:39:06;;;;;;;32.50;9.83;;;31.40;2.40;;;;;;5039284;28;20470;-59
2022/05/09 06:41:35;;;;;;;30.67;8.60;;;31.80;1.30;;;;;;5037485;28;20458;-58
2022/05/09 06:44:01;;;;;;;29.33;8.60;;;31.90;1.00;;;;;;5040242;28;20960;-63
2022/05/09 06:46:28;;;;;;;29.47;8.90;;;32.20;1.00;;;;;;5040516;28;20469;-63
2022/05/09 06:48:55;;;;;;;28.40;8.73;;;32.50;1.00;;;;;;5043210;28;20462;-62
2022/05/09 06:51:22;;;;;;;28.23;8.53;;;32.90;1.00;;;;;;5043692;28;20461;-61
2022/05/09 06:53:50;;;;;;;29.50;8.67;;;33.30;1.00;;;;;;5042080;28;20955;-63
2022/05/09 06:56:16;;;;;;;28.50;9.27;;;33.80;1.00;;;;;;5043631;28;20912;-62
2022/05/09 06:58:45;;;;;;;30.30;9.63;;;33.90;1.00;;;;;;5045563;28;20469;-61
2022/05/09 07:01:17;;;;;;;28.80;8.80;;;34.10;1.00;;;;;;5041986;28;20481;-63
2022/05/09 07:03:43;;;;;;;29.10;8.97;;;34.20;1.00;;;;;;5038464;28;20999;-63
2022/05/09 07:06:10;;;;;;;28.40;8.90;;;34.00;1.00;;;;;;5043336;28;20999;-63
2022/05/09 07:08:38;;;;;;;28.07;8.93;;;33.70;1.00;;;;;;5046965;28;21360;-65
2022/05/09 07:11:06;;;;;;;28.50;8.80;;;33.80;1.00;;;;;;5041616;28;20465;-63
2022/05/09 07:13:34;;;;;;;26.90;8.20;;;34.30;1.00;;;;;;5039119;28;20465;-62
2022/05/09 07:16:04;;;;;;;29.70;8.43;;;34.90;1.00;;;;;;5045571;28;20478;-63
2022/05/09 07:18:30;;;;;;;27.63;8.90;;;35.50;1.00;;;;;;5050834;28;20490;-63
2022/05/09 07:20:58;;;;;;;28.30;8.97;;;35.90;1.00;;;;;;5044956;28;20546;-61
2022/05/09 07:23:25;;;;;;;29.20;9.27;;;35.90;1.00;;;;;;5037271;28;21475;-65
2022/05/09 07:25:54;;;;;;;27.90;8.60;;;36.40;1.00;;;;;;5038090;28;20493;-62
2022/05/09 07:28:21;;;;;;;27.67;9.30;;;37.00;1.00;;;;;;5047928;28;20565;-62
2022/05/09 07:30:48;;;;;;;30.95;10.80;;;37.30;1.00;;;;;;5044571;28;20454;-61
2022/05/09 07:33:19;;;;;;;27.70;9.33;;;37.30;1.00;;;;;;5039204;28;22257;-62
2022/05/09 07:35:46;;;;;;;27.20;9.27;;;37.00;1.00;;;;;;5038948;28;20877;-62
2022/05/09 07:38:13;;;;;;;27.90;8.90;;;36.80;1.00;;;;;;5041088;28;20459;-62
2022/05/09 07:40:41;;;;;;;28.23;10.13;;;36.60;1.00;;;;;;5043269;28;21051;-62
2022/05/09 07:43:14;;;;;;;27.20;9.70;;;36.80;1.00;;;;;;5036903;28;20900;-62
2022/05/09 07:45:43;;;;;;;27.30;8.50;;;37.30;1.00;;;;;;5040241;28;20509;-64
2022/05/09 07:48:11;;;;;;;28.73;9.57;;;37.50;1.00;;;;;;5044334;28;20524;-63
2022/05/09 07:50:40;;;;;;;30.83;9.60;;;38.10;1.00;;;;;;5043223;28;20461;-62
2022/05/09 07:53:09;;;;;;;28.37;10.63;;;38.70;1.00;;;;;;5042702;28;20454;-60
2022/05/09 07:55:36;;;;;;;30.47;9.40;;;39.20;1.00;;;;;;5047668;28;20497;-61
2022/05/09 07:58:02;;;;;;;27.30;10.40;;;39.70;1.00;;;;;;5045804;28;20469;-62
2022/05/09 08:00:29;;;;;;;28.10;10.43;;;39.80;1.00;;;;;;5039475;28;20482;-62
2022/05/09 08:02:56;;;;;;;26.50;9.17;;;40.00;1.00;;;;;;5047231;28;21066;-61
2022/05/09 08:05:23;;;;;;;26.87;9.40;;;40.10;1.00;;;;;;5040072;28;20490;-61
2022/05/09 08:07:51;;;;;;;27.13;10.67;;;40.30;1.00;;;;;;5041975;28;20469;-62
2022/05/09 08:10:17;;;;;;;28.27;10.60;;;40.60;1.00;;;;;;5046012;28;20470;-61
2022/05/09 08:12:45;;;;;;;27.27;10.43;;;40.90;1.00;;;;;;5038396;28;20462;-61
2022/05/09 08:15:13;;;;;;;29.03;9.70;;;40.30;1.00;;;;;;5038223;28;20489;-60
2022/05/09 08:17:40;;;;;;;27.70;8.80;;;40.70;1.00;;;;;;5037586;28;20462;-60
2022/05/09 08:20:09;;;;;;;26.70;10.30;;;41.40;1.00;;;;;;5046683;28;20472;-61
2022/05/09 08:22:36;;;;;;;27.60;10.23;;;41.30;1.00;;;;;;5043708;28;21023;-60
2022/05/09 08:25:05;;;;;;;25.90;8.90;;;40.50;1.00;;;;;;5039639;28;20493;-56
2022/05/09 08:27:32;;;;;;;28.70;10.07;;;39.60;1.00;;;;;;5037488;28;20473;-57
2022/05/09 08:29:59;;;;;;;28.77;10.10;;;38.80;1.00;;;;;;5042142;28;20458;-58
2022/05/09 08:32:26;;;;;;;28.40;9.27;;;38.60;1.00;;;;;;5046159;28;21029;-56
2022/05/09 08:34:54;;;;;;;27.73;9.80;;;39.50;1.00;;;;;;5043750;28;20480;-57
2022/05/09 08:37:21;;;;;;;26.80;9.47;;;39.90;1.00;;;;;;5036330;28;20464;-58
2022/05/09 08:39:48;;;;;;;27.20;9.87;;;39.90;1.00;;;;;;5038653;28;20465;-58
2022/05/09 08:42:21;;;;;;;26.40;9.43;;;40.40;1.00;;;;;;5040590;28;20459;-58
2022/05/09 08:45:15;;;;;;;25.77;9.60;;;41.70;1.00;;;;;;5038366;28;20481;-58
2022/05/09 08:48:15;;;;;;;26.87;9.10;;;41.30;1.00;;;;;;5037739;28;20458;-57
2022/05/09 08:50:57;;;;;;;26.13;8.90;;;40.10;1.00;;;;;;5038064;28;20473;-57
2022/05/09 08:53:26;;;;;;;26.37;8.30;;;40.20;1.00;;;;;;5045883;28;20462;-56
2022/05/09 08:55:55;;;;;;;27.13;7.83;;;40.70;1.00;;;;;;5038940;28;20490;-59
2022/05/09 08:58:37;;;;;;;26.70;8.10;;;40.00;1.00;;;;;;5038079;28;20470;-58
2022/05/09 09:01:10;;;;;;;25.90;7.60;;;39.80;1.00;;;;;;5038475;28;20474;-58
2022/05/09 09:03:40;;;;;;;25.47;7.50;;;40.20;1.00;;;;;;5035494;28;20489;-58
2022/05/09 09:06:15;;;;;;;27.60;8.50;;;39.90;1.00;;;;;;5038266;28;20501;-57
2022/05/09 09:08:58;;;;;;;26.33;8.97;;;40.40;1.00;;;;;;5032483;28;20458;-58
2022/05/09 09:11:34;;;;;;;26.10;8.30;;;40.50;1.00;;;;;;5042228;28;20963;-56
2022/05/09 09:14:10;;;;;;;27.83;8.97;;;38.20;1.00;;;;;;5043684;28;20457;-58
2022/05/09 09:16:59;;;;;;;26.00;6.90;;;37.70;1.00;;;;;;5041617;28;21006;-58
2022/05/09 09:19:41;;;;;;;27.00;7.63;;;38.90;1.00;;;;;;5031610;28;20837;-59
2022/05/09 09:22:15;;;;;;;27.30;8.00;;;39.00;1.00;;;;;;5035967;28;20469;-59
2022/05/09 09:25:00;;;;;;;27.30;8.17;;;36.80;1.00;;;;;;5042084;28;21016;-58
2022/05/09 09:27:36;;;;;;;27.60;8.90;;;35.10;1.00;;;;;;5036423;28;20852;-58
2022/05/09 09:30:11;;;;;;;28.00;8.40;;;35.00;1.00;;;;;;5034912;28;20462;-60
2022/05/09 09:32:40;;;;;;;27.23;8.27;;;34.30;1.00;;;;;;5041138;28;20469;-59
2022/05/09 09:35:12;;;;;;;28.23;9.03;;;35.60;1.00;;;;;;5037153;28;20490;-58
2022/05/09 09:37:45;;;;;;;28.20;8.20;;;34.70;1.00;;;;;;5037309;28;20475;-59
2022/05/09 09:40:12;;;;;;;28.70;8.47;;;34.10;1.00;;;;;;5041402;28;20477;-59
2022/05/09 09:42:39;;;;;;;29.07;8.87;;;33.30;1.00;;;;;;5037560;28;20463;-58
2022/05/09 09:45:20;;;;;;;28.33;8.57;;;32.30;1.00;;;;;;5037831;28;20489;-58
2022/05/09 09:47:47;;;;;;;28.90;8.60;;;32.20;1.00;;;;;;5036061;28;20983;-58
2022/05/09 09:50:19;;;;;;;29.00;8.13;;;31.70;1.00;;;;;;5036091;28;20454;-58
2022/05/09 09:52:49;;;;;;;28.27;8.70;;;31.70;1.00;;;;;;5039816;28;20457;-58
2022/05/09 09:55:25;;;;;;;29.17;8.47;;;32.50;1.00;;;;;;5038746;28;20489;-58
2022/05/09 09:57:52;;;;;;;28.00;9.00;;;32.30;1.00;;;;;;5042166;28;20458;-59
2022/05/09 10:00:24;;;;;;;27.40;7.70;;;31.40;1.00;;;;;;5041119;28;20472;-60
2022/05/09 10:02:53;;;;;;;30.23;9.23;;;30.90;1.00;;;;;;5044886;28;20457;-59
2022/05/09 10:05:32;;;;;;;33.83;9.53;;;30.30;1.90;;;;;;5045796;28;20494;-59
2022/05/09 10:07:59;;;;;;;31.30;9.23;;;30.60;2.50;;;;;;5041509;28;20831;-56
2022/05/09 10:10:28;;;;;;;30.93;10.00;;;30.50;2.00;;;;;;5043266;28;20975;-58
2022/05/09 10:12:56;;;;;;;29.03;8.70;;;29.80;2.50;;;;;;5044293;28;21380;-62
2022/05/09 10:15:30;;;;;;;31.13;9.53;;;29.50;3.30;;;;;;5047812;28;20493;-61
2022/05/09 10:17:59;;;;;;;29.00;9.47;;;29.00;4.20;;;;;;5038280;28;20463;-60
2022/05/09 10:20:29;;;;;;;31.00;8.27;;;28.60;4.00;;;;;;5037588;28;20489;-58
2022/05/09 10:26:01;;;;;;;33.90;8.27;;;28.10;4.90;;;;;;5044524;28;20592;-57
2022/05/09 10:28:31;;;;;;;31.80;10.13;;;27.80;5.20;;;;;;5040581;28;20496;-58
2022/05/09 10:31:10;;;;;;;32.07;10.17;;;27.50;6.00;;;;;;5033764;28;21003;-60
2022/05/09 10:33:43;;;;;;;32.43;9.70;;;27.50;6.70;;;;;;5044232;28;20457;-57
2022/05/09 10:36:18;;;;;;;28.53;9.00;;;27.40;6.50;;;;;;5045771;28;20999;-58
2022/05/09 10:38:50;;;;;;;29.80;9.40;;;27.20;6.60;;;;;;5042827;28;20472;-58
2022/05/09 10:41:26;;;;;;;31.83;9.80;;;27.20;7.40;;;;;;5034803;28;20463;-59
2022/05/09 10:43:56;;;;;;;30.70;9.53;;;27.30;7.70;;;;;;5042703;28;20513;-59
2022/05/09 10:46:36;;;;;;;32.67;9.60;;;27.30;7.50;;;;;;5043409;28;20488;-59
2022/05/09 10:49:08;;;;;;;29.70;9.10;;;27.30;6.80;;;;;;5041365;28;20458;-59
2022/05/09 10:51:41;;;;;;;31.60;10.03;;;27.20;8.10;;;;;;5037170;28;20968;-60
2022/05/09 10:54:13;;;;;;;30.63;9.50;;;27.10;7.40;;;;;;5044584;28;20464;-58
2022/05/09 10:56:45;;;;;;;28.30;7.90;;;27.00;6.50;;;;;;5040456;28;20459;-58
2022/05/09 10:59:19;;;;;;;29.43;8.77;;;26.70;7.30;;;;;;5037466;28;20981;-57
2022/05/09 11:01:56;;;;;;;29.73;8.47;;;26.40;5.90;;;;;;5034883;28;20482;-59
2022/05/09 11:04:24;;;;;;;28.27;7.60;;;26.00;7.20;;;;;;5040029;28;20574;-58
2022/05/09 11:06:59;;;;;;;30.20;8.80;;;25.80;7.70;;;;;;5046232;28;21000;-58
2022/05/09 11:09:42;;;;;;;30.80;8.60;;;25.80;8.70;;;;;;5044427;28;20473;-64
2022/05/09 11:12:37;;;;;;;32.00;8.87;;;25.70;7.30;;;;;;5041671;28;20889;-58
2022/05/09 11:15:14;;;;;;;30.13;8.07;;;25.40;8.30;;;;;;5038049;28;20474;-58
2022/05/09 11:17:56;;;;;;;29.97;9.07;;;25.10;8.30;;;;;;5039350;28;20520;-59
2022/05/09 11:20:31;;;;;;;33.57;8.30;;;24.90;10.10;;;;;;5042743;28;20458;-59
2022/05/09 11:23:09;;;;;;;31.40;8.37;;;25.00;10.70;;;;;;5038266;28;20461;-61
2022/05/09 11:25:49;;;;;;;30.73;10.00;;;25.00;10.10;;;;;;5033116;28;20480;-58
2022/05/09 11:28:43;;;;;;;34.10;9.80;;;25.00;10.40;;;;;;5044945;28;20469;-59
2022/05/09 11:31:21;;;;;;;30.57;9.30;;;24.90;10.20;;;;;;5049725;28;20473;-59
2022/05/09 11:34:02;;;;;;;31.83;9.83;;;24.90;10.70;;;;;;5036398;28;20459;-58
2022/05/09 11:36:45;;;;;;;29.67;9.10;;;25.00;10.70;;;;;;5036934;28;20857;-60
2022/05/09 11:39:18;;;;;;;30.90;9.27;;;25.10;9.90;;;;;;5044719;28;20474;-59
2022/05/09 11:41:53;;;;;;;29.30;7.97;;;25.10;9.80;;;;;;5043586;28;20470;-63
2022/05/09 11:44:23;;;;;;;30.00;7.73;;;25.10;9.80;;;;;;5037535;28;20516;-56
2022/05/09 11:47:20;;;;;;;28.40;7.20;;;25.10;9.60;;;;;;5037202;28;20584;-59
2022/05/09 11:50:23;;;;;;;29.63;7.50;;;25.00;8.30;;;;;;5048826;28;20453;-57
2022/05/09 11:52:52;;;;;;;30.23;7.20;;;24.80;8.20;;;;;;5032572;28;20463;-56
2022/05/09 11:55:21;;;;;;;29.90;7.00;;;24.60;7.60;;;;;;5042382;28;20980;-60
2022/05/09 11:57:53;;;;;;;31.87;8.10;;;24.40;7.50;;;;;;5038458;28;20944;-58
2022/05/09 12:00:48;;;;;;;30.90;7.30;;;24.20;8.60;;;;;;5038932;28;20468;-58
2022/05/09 12:03:36;;;;;;;29.70;7.13;;;24.00;7.80;;;;;;5039452;28;20462;-59
2022/05/09 12:06:06;;;;;;;28.97;6.97;;;23.90;9.00;;;;;;5041075;28;20492;-61
2022/05/09 12:08:42;;;;;;;31.70;7.40;;;24.00;9.60;;;;;;5040336;28;20464;-59
2022/05/09 12:11:42;;;;;;;29.27;7.50;;;24.00;9.60;;;;;;5039683;28;20465;-58
2022/05/09 12:14:09;;;;;;;30.40;7.90;;;24.10;10.90;;;;;;5037925;28;20462;-59
2022/05/09 12:16:51;;;;;;;29.93;8.30;;;24.10;10.90;;;;;;5037889;28;20473;-60
2022/05/09 12:19:33;;;;;;;32.53;8.43;;;24.10;10.50;;;;;;5035282;28;20465;-61
2022/05/09 12:22:37;;;;;;;28.40;7.30;;;24.10;11.20;;;;;;5038307;28;20458;-59
2022/05/09 12:25:06;;;;;;;31.77;8.13;;;24.00;10.80;;;;;;5042127;28;20581;-59
2022/05/09 12:27:46;;;;;;;29.60;7.67;;;24.10;10.80;;;;;;5039483;28;20565;-59
2022/05/09 12:30:15;;;;;;;31.50;7.97;;;24.00;11.30;;;;;;5037106;28;20459;-61
2022/05/09 12:32:50;;;;;;;29.23;8.07;;;24.00;10.10;;;;;;5036610;28;20468;-57
2022/05/09 12:35:17;;;;;;;30.50;7.97;;;24.00;10.90;;;;;;5058032;28;20485;-59
2022/05/09 12:37:47;;;;;;;28.97;7.70;;;24.10;10.30;;;;;;5056305;28;20960;-60
2022/05/09 12:40:22;;;;;;;33.00;7.40;;;24.20;11.00;;;;;;5038760;28;20494;-58
2022/05/09 12:42:55;;;;;;;28.60;6.90;;;24.20;10.00;;;;;;5045357;28;20475;-58
2022/05/09 12:45:22;;;;;;;30.40;7.50;;;24.10;10.10;;;;;;5052701;28;20534;-58
2022/05/09 12:47:50;;;;;;;28.27;6.93;;;24.10;9.90;;;;;;5052277;28;20651;-58
2022/05/09 12:50:24;;;;;;;30.67;7.33;;;24.20;9.80;;;;;;5034206;28;20474;-59
2022/05/09 12:52:55;;;;;;;30.90;7.97;;;24.20;9.20;;;;;;5039431;28;20462;-60
2022/05/09 12:58:30;;;;;;;29.87;7.80;;;24.20;10.50;;;;;;5035172;28;20524;-58
2022/05/09 13:00:58;;;;;;;29.67;7.20;;;24.30;9.90;;;;;;5037730;28;20480;-59
2022/05/09 13:03:26;;;;;;;32.60;7.30;;;24.30;9.70;;;;;;5041304;28;20458;-58
2022/05/09 13:05:53;;;;;;;29.30;7.67;;;24.30;10.60;;;;;;5040589;28;20578;-60